createdAt,value
2023-02-03T00:01:26.846Z,6.30
2023-02-03T00:03:54.619Z,6.30
2023-02-03T00:06:22.642Z,6.30
2023-02-03T00:08:54.247Z,6.40
2023-02-03T00:11:22.097Z,6.30
2023-02-03T00:13:51.278Z,6.20
2023-02-03T00:16:19.132Z,6.20
2023-02-03T00:18:47.007Z,6.20
2023-02-03T00:21:15.187Z,6.20
2023-02-03T00:23:43.174Z,6.20
2023-02-03T00:26:12.211Z,6.30
2023-02-03T00:28:40.305Z,6.20
2023-02-03T00:31:16.858Z,6.20
2023-02-03T00:33:44.875Z,6.20
2023-02-03T00:36:13.656Z,6.20
2023-02-03T00:38:41.866Z,6.30
2023-02-03T00:41:09.687Z,6.30
2023-02-03T00:43:37.496Z,6.20
2023-02-03T00:46:05.485Z,6.20
2023-02-03T00:48:34.663Z,6.20
2023-02-03T00:51:02.493Z,6.20
2023-02-03T00:53:30.307Z,6.10
2023-02-03T00:55:58.172Z,6.20
2023-02-03T00:58:26.010Z,6.20
2023-02-03T01:00:56.586Z,6.20
2023-02-03T01:03:24.495Z,6.30
2023-02-03T01:05:53.730Z,6.20
2023-02-03T01:08:21.537Z,6.20
2023-02-03T01:10:49.322Z,6.20
2023-02-03T01:13:17.152Z,6.20
2023-02-03T01:15:48.123Z,6.20
2023-02-03T01:18:15.968Z,6.20
2023-02-03T01:20:43.798Z,6.20
2023-02-03T01:23:12.933Z,6.20
2023-02-03T01:25:40.705Z,6.20
2023-02-03T01:28:08.620Z,6.10
2023-02-03T01:30:36.668Z,6.20
2023-02-03T01:33:04.544Z,6.30
2023-02-03T01:35:32.318Z,6.30
2023-02-03T01:38:00.386Z,6.30
2023-02-03T01:40:29.533Z,6.30
2023-02-03T01:42:57.338Z,6.20
2023-02-03T01:45:25.293Z,6.30
2023-02-03T01:47:59.281Z,6.30
2023-02-03T01:50:32.080Z,6.30
2023-02-03T01:53:03.061Z,6.20
2023-02-03T01:55:35.752Z,6.30
2023-02-03T01:58:08.582Z,6.30
2023-02-03T02:00:36.374Z,6.20
2023-02-03T02:03:06.928Z,6.10
2023-02-03T02:05:39.733Z,6.10
2023-02-03T02:08:09.993Z,6.10
2023-02-03T02:10:39.402Z,6.20
2023-02-03T02:13:07.915Z,6.20
2023-02-03T02:15:44.170Z,6.20
2023-02-03T02:18:26.443Z,6.20
2023-02-03T02:21:35.076Z,6.10
2023-02-03T02:24:41.778Z,6.10
2023-02-03T02:27:24.991Z,6.00
2023-02-03T02:30:35.212Z,6.00
2023-02-03T02:33:11.609Z,6.10
2023-02-03T02:35:51.977Z,6.00
2023-02-03T02:38:28.543Z,6.00
2023-02-03T02:41:01.877Z,6.00
2023-02-03T02:43:36.769Z,6.00
2023-02-03T02:46:10.191Z,6.10
2023-02-03T02:48:44.905Z,6.00
2023-02-03T02:51:15.341Z,6.00
2023-02-03T02:53:48.967Z,6.00
2023-02-03T02:56:18.794Z,6.00
2023-02-03T02:58:50.713Z,6.00
2023-02-03T03:01:19.122Z,5.90
2023-02-03T03:03:48.510Z,5.90
2023-02-03T03:06:20.823Z,6.00
2023-02-03T03:08:53.632Z,5.90
2023-02-03T03:11:21.732Z,5.80
2023-02-03T03:13:52.841Z,5.80
2023-02-03T03:16:25.635Z,5.70
2023-02-03T03:19:00.268Z,5.60
2023-02-03T03:21:33.090Z,5.80
2023-02-03T03:24:04.870Z,5.80
2023-02-03T03:26:39.807Z,5.70
2023-02-03T03:29:12.199Z,5.70
2023-02-03T03:31:41.376Z,5.60
2023-02-03T03:34:12.994Z,5.50
2023-02-03T03:36:45.527Z,5.60
2023-02-03T03:39:18.858Z,5.60
2023-02-03T03:41:57.325Z,5.60
2023-02-03T03:44:29.676Z,5.50
2023-02-03T03:47:04.556Z,5.50
2023-02-03T03:49:35.160Z,5.50
2023-02-03T03:52:07.457Z,5.50
2023-02-03T03:54:37.938Z,5.50
2023-02-03T03:57:10.573Z,5.50
2023-02-03T03:59:41.649Z,5.50
2023-02-03T04:02:09.581Z,5.50
2023-02-03T04:04:40.770Z,5.60
2023-02-03T04:07:08.619Z,5.60
2023-02-03T04:09:37.035Z,5.60
2023-02-03T04:12:06.785Z,5.60
2023-02-03T04:14:38.610Z,5.60
2023-02-03T04:17:06.716Z,5.60
2023-02-03T04:19:34.531Z,5.50
2023-02-03T04:22:03.697Z,5.50
2023-02-03T04:24:31.493Z,5.50
2023-02-03T04:26:59.309Z,5.60
2023-02-03T04:29:27.106Z,5.60
2023-02-03T04:31:54.983Z,5.60
2023-02-03T04:34:22.782Z,5.60
2023-02-03T04:36:50.591Z,5.60
2023-02-03T04:39:19.748Z,5.70
2023-02-03T04:41:47.555Z,5.70
2023-02-03T04:44:15.326Z,5.70
2023-02-03T04:46:43.126Z,5.70
2023-02-03T04:49:11.718Z,5.70
2023-02-03T04:51:39.622Z,5.80
2023-02-03T04:54:07.668Z,5.80
2023-02-03T04:56:36.999Z,5.80
2023-02-03T04:59:04.861Z,5.90
2023-02-03T05:01:32.697Z,6.00
2023-02-03T05:04:00.509Z,6.00
2023-02-03T05:06:30.122Z,5.90
2023-02-03T05:08:57.893Z,5.90
2023-02-03T05:11:25.898Z,5.90
2023-02-03T05:13:55.516Z,5.90
2023-02-03T05:16:23.672Z,6.00
2023-02-03T05:18:51.593Z,6.00
2023-02-03T05:21:19.709Z,6.00
2023-02-03T05:23:47.630Z,5.90
2023-02-03T05:26:15.625Z,6.00
2023-02-03T05:28:43.439Z,6.10
2023-02-03T05:31:12.797Z,6.10
2023-02-03T05:33:40.721Z,6.00
2023-02-03T05:36:09.605Z,6.00
2023-02-03T05:38:37.404Z,6.00
2023-02-03T05:41:22.943Z,6.00
2023-02-03T05:43:50.716Z,6.00
2023-02-03T05:46:20.416Z,6.10
2023-02-03T05:48:48.178Z,6.10
2023-02-03T05:51:15.990Z,6.00
2023-02-03T05:53:43.753Z,6.00
2023-02-03T05:56:11.537Z,6.00
2023-02-03T05:58:39.322Z,6.00
2023-02-03T06:01:07.144Z,6.10
2023-02-03T06:03:36.302Z,6.00
2023-02-03T06:06:04.438Z,6.00
2023-02-03T06:08:32.234Z,6.10
2023-02-03T06:11:00.944Z,6.20
2023-02-03T06:13:29.448Z,6.10
2023-02-03T06:15:57.488Z,6.10
2023-02-03T06:18:25.314Z,6.10
2023-02-03T06:20:54.478Z,6.00
2023-02-03T06:23:22.384Z,6.10
2023-02-03T06:25:51.657Z,6.20
2023-02-03T06:28:19.800Z,6.20
2023-02-03T06:30:51.038Z,6.20
2023-02-03T06:33:19.022Z,6.20
2023-02-03T06:35:46.898Z,6.20
2023-02-03T06:38:16.048Z,6.20
2023-02-03T06:40:43.843Z,6.30
2023-02-03T06:43:11.674Z,6.40
2023-02-03T06:45:39.475Z,6.30
2023-02-03T06:48:07.667Z,6.30
2023-02-03T06:50:35.886Z,6.20
2023-02-03T06:53:03.820Z,6.20
2023-02-03T06:55:32.972Z,6.20
2023-02-03T06:58:00.772Z,6.20
2023-02-03T07:00:28.820Z,6.20
2023-02-03T07:02:58.129Z,6.20
2023-02-03T07:05:27.824Z,6.20
2023-02-03T07:07:55.852Z,6.10
2023-02-03T07:10:24.065Z,6.10
2023-02-03T07:12:53.185Z,6.10
2023-02-03T07:15:21.011Z,6.10
2023-02-03T07:17:54.336Z,6.00
2023-02-03T07:20:23.408Z,6.00
2023-02-03T07:22:55.059Z,6.00
2023-02-03T07:25:23.713Z,6.00
2023-02-03T07:27:53.037Z,6.10
2023-02-03T07:30:21.075Z,6.10
2023-02-03T07:32:49.594Z,6.00
2023-02-03T07:35:17.715Z,6.10
2023-02-03T07:37:45.830Z,6.20
2023-02-03T07:40:14.833Z,6.10
2023-02-03T07:42:43.443Z,6.10
2023-02-03T07:45:14.371Z,6.10
2023-02-03T07:47:42.649Z,6.10
2023-02-03T07:50:11.839Z,6.20
2023-02-03T07:52:40.028Z,6.20
2023-02-03T07:55:08.648Z,6.20
2023-02-03T07:57:37.020Z,6.30
2023-02-03T08:00:05.766Z,6.30
2023-02-03T08:02:34.899Z,6.40
2023-02-03T08:05:02.755Z,6.50
2023-02-03T08:07:30.591Z,6.50
2023-02-03T08:09:58.401Z,6.50
2023-02-03T08:12:26.205Z,6.40
2023-02-03T08:14:53.991Z,6.50
2023-02-03T08:17:21.864Z,6.40
2023-02-03T08:19:51.040Z,6.60
2023-02-03T08:22:19.433Z,6.50
2023-02-03T08:24:48.108Z,6.60
2023-02-03T08:27:18.169Z,6.60
2023-02-03T08:29:46.103Z,6.60
2023-02-03T08:32:15.658Z,6.60
2023-02-03T08:34:43.574Z,6.60
2023-02-03T08:37:13.788Z,6.70
2023-02-03T08:39:41.929Z,6.60
2023-02-03T08:42:10.067Z,6.70
2023-02-03T08:44:38.995Z,6.70
2023-02-03T08:47:07.369Z,6.80
2023-02-03T08:49:35.709Z,6.80
2023-02-03T08:52:03.533Z,6.90
2023-02-03T08:54:33.113Z,7.00
2023-02-03T08:57:01.013Z,7.00
2023-02-03T08:59:29.181Z,7.10
2023-02-03T09:01:59.768Z,7.10
2023-02-03T09:04:27.613Z,7.20
2023-02-03T09:06:55.929Z,7.20
2023-02-03T09:09:26.363Z,7.30
2023-02-03T09:12:01.868Z,7.50
2023-02-03T09:14:31.416Z,7.70
2023-02-03T09:16:59.452Z,7.60
2023-02-03T09:19:27.424Z,7.70
2023-02-03T09:21:57.184Z,7.70
2023-02-03T09:24:25.481Z,7.70
2023-02-03T09:26:55.152Z,7.60
2023-02-03T09:29:23.250Z,7.50
2023-02-03T09:31:52.684Z,7.50
2023-02-03T09:34:20.927Z,7.50
2023-02-03T09:36:49.286Z,7.40
2023-02-03T09:39:17.167Z,7.40
2023-02-03T09:42:04.387Z,7.40
2023-02-03T09:44:42.820Z,7.40
2023-02-03T09:47:15.594Z,7.50
2023-02-03T09:49:48.204Z,7.50
2023-02-03T09:52:20.338Z,7.50
2023-02-03T09:54:54.582Z,7.50
2023-02-03T09:57:25.814Z,7.60
2023-02-03T09:59:55.252Z,7.70
2023-02-03T10:02:44.935Z,7.70
2023-02-03T10:05:21.291Z,7.70
2023-02-03T10:08:00.244Z,7.80
2023-02-03T10:10:37.168Z,7.90
2023-02-03T10:13:18.027Z,8.00
2023-02-03T10:16:03.644Z,8.10
2023-02-03T10:18:37.016Z,8.20
2023-02-03T10:21:14.180Z,8.30
2023-02-03T10:23:44.544Z,8.50
2023-02-03T10:26:18.213Z,9.00
2023-02-03T10:28:55.430Z,9.10
2023-02-03T10:31:25.291Z,9.00
2023-02-03T10:34:00.551Z,9.10
2023-02-03T10:36:38.789Z,9.10
2023-02-03T10:39:18.465Z,9.50
2023-02-03T10:41:46.320Z,9.70
2023-02-03T10:44:16.388Z,9.90
2023-02-03T10:46:46.253Z,10.00
2023-02-03T10:49:14.993Z,10.00
2023-02-03T10:51:49.211Z,10.00
2023-02-03T10:54:35.452Z,9.90
2023-02-03T10:57:06.901Z,9.70
2023-02-03T10:59:46.464Z,9.70
2023-02-03T11:02:25.202Z,9.70
2023-02-03T11:05:12.246Z,10.10
2023-02-03T11:07:40.030Z,10.10
2023-02-03T11:10:35.634Z,10.20
2023-02-03T11:13:16.658Z,10.10
2023-02-03T11:15:53.259Z,10.00
2023-02-03T11:18:56.324Z,10.00
2023-02-03T11:21:26.378Z,9.90
2023-02-03T11:24:03.103Z,10.00
2023-02-03T11:26:34.658Z,9.90
2023-02-03T11:29:03.981Z,9.80
2023-02-03T11:31:35.482Z,9.80
2023-02-03T11:34:06.246Z,9.80
2023-02-03T11:36:36.135Z,9.80
2023-02-03T11:39:25.209Z,9.60
2023-02-03T11:41:53.244Z,9.80
2023-02-03T11:44:23.822Z,10.00
2023-02-03T11:46:57.437Z,10.10
2023-02-03T11:49:44.398Z,10.20
2023-02-03T11:52:40.248Z,10.20
2023-02-03T11:55:17.335Z,10.30
2023-02-03T11:58:00.066Z,10.20
2023-02-03T12:00:37.028Z,10.00
2023-02-03T12:03:43.383Z,9.90
2023-02-03T12:06:29.788Z,9.90
2023-02-03T12:09:22.790Z,9.90
2023-02-03T12:12:09.120Z,10.00
2023-02-03T12:14:50.574Z,9.90
2023-02-03T12:17:41.343Z,9.80
2023-02-03T12:20:25.228Z,9.70
2023-02-03T12:23:05.831Z,9.70
2023-02-03T12:25:44.900Z,9.90
2023-02-03T12:28:33.238Z,10.10
2023-02-03T12:31:08.618Z,10.20
2023-02-03T12:33:43.372Z,10.30
2023-02-03T12:36:17.000Z,10.40
2023-02-03T12:38:52.064Z,10.30
2023-02-03T12:41:23.693Z,10.30
2023-02-03T12:43:55.907Z,10.10
2023-02-03T12:46:27.220Z,10.00
2023-02-03T12:49:00.679Z,10.00
2023-02-03T12:51:39.330Z,9.80
2023-02-03T12:54:14.791Z,9.70
2023-02-03T12:56:45.632Z,9.70
2023-02-03T12:59:19.506Z,9.60
2023-02-03T13:01:50.638Z,9.70
2023-02-03T13:04:29.065Z,9.40
2023-02-03T13:07:05.795Z,9.20
2023-02-03T13:09:41.892Z,9.30
2023-02-03T13:12:14.596Z,9.30
2023-02-03T13:14:45.886Z,9.20
2023-02-03T13:17:19.264Z,9.10
2023-02-03T13:19:50.207Z,9.00
2023-02-03T13:22:23.779Z,9.10
2023-02-03T13:24:57.029Z,9.10
2023-02-03T13:27:47.154Z,9.10
2023-02-03T13:30:41.232Z,9.10
2023-02-03T13:33:47.529Z,9.10
2023-02-03T13:36:53.516Z,9.00
2023-02-03T13:39:47.712Z,9.10
2023-02-03T13:42:23.458Z,9.00
2023-02-03T13:44:53.935Z,8.90
2023-02-03T13:47:25.808Z,8.80
2023-02-03T13:49:57.062Z,8.90
2023-02-03T13:52:32.375Z,8.80
2023-02-03T13:55:02.315Z,8.90
2023-02-03T13:57:35.505Z,8.80
2023-02-03T14:00:07.235Z,8.70
2023-02-03T14:02:53.748Z,8.60
2023-02-03T14:05:41.525Z,8.60
2023-02-03T14:08:48.435Z,8.50
2023-02-03T14:11:43.063Z,8.60
2023-02-03T14:14:45.290Z,8.60
2023-02-03T14:17:50.535Z,8.50
2023-02-03T14:20:43.338Z,8.40
2023-02-03T14:23:17.411Z,8.30
2023-02-03T14:25:49.067Z,8.40
2023-02-03T14:28:21.180Z,8.40
2023-02-03T14:31:12.500Z,8.50
2023-02-03T14:33:57.242Z,8.40
2023-02-03T14:36:31.689Z,8.40
2023-02-03T14:39:02.478Z,8.40
2023-02-03T14:41:39.518Z,8.30
2023-02-03T14:44:19.368Z,8.30
2023-02-03T14:47:16.248Z,8.30
2023-02-03T14:49:59.727Z,8.30
2023-02-03T14:52:55.917Z,8.30
2023-02-03T14:55:43.906Z,8.20
2023-02-03T14:58:22.297Z,8.20
2023-02-03T15:00:54.712Z,8.30
2023-02-03T15:03:25.455Z,8.30
2023-02-03T15:05:56.131Z,8.10
2023-02-03T15:08:36.555Z,8.10
2023-02-03T15:11:27.857Z,8.20
2023-02-03T15:13:56.398Z,8.10
2023-02-03T15:16:27.152Z,8.10
2023-02-03T15:18:57.408Z,8.00
2023-02-03T15:21:25.562Z,8.00
2023-02-03T15:23:54.159Z,8.10
2023-02-03T15:26:24.095Z,8.10
2023-02-03T15:28:55.881Z,8.10
2023-02-03T15:31:29.502Z,8.10
2023-02-03T15:34:01.886Z,8.10
2023-02-03T15:36:39.107Z,8.10
2023-02-03T15:39:18.173Z,8.10
2023-02-03T15:41:47.876Z,8.00
2023-02-03T15:44:29.218Z,8.10
2023-02-03T15:46:59.846Z,8.10
2023-02-03T15:49:31.780Z,8.00
2023-02-03T15:52:03.552Z,8.00
2023-02-03T15:54:41.000Z,8.00
2023-02-03T15:57:11.591Z,8.00
2023-02-03T15:59:42.225Z,8.00
2023-02-03T16:02:19.206Z,7.90
2023-02-03T16:04:47.371Z,8.00
2023-02-03T16:07:20.474Z,7.90
2023-02-03T16:09:48.531Z,7.90
2023-02-03T16:12:19.772Z,7.90
2023-02-03T16:14:47.706Z,8.00
2023-02-03T16:17:25.710Z,8.00
2023-02-03T16:20:05.742Z,7.90
2023-02-03T16:22:40.246Z,7.90
2023-02-03T16:25:16.016Z,7.90
2023-02-03T16:27:46.376Z,7.90
2023-02-03T16:30:43.083Z,7.90
2023-02-03T16:33:35.425Z,7.90
2023-02-03T16:36:28.556Z,7.90
2023-02-03T16:39:14.239Z,8.00
2023-02-03T16:41:59.753Z,7.90
2023-02-03T16:44:45.274Z,7.90
2023-02-03T16:47:43.474Z,7.80
2023-02-03T16:50:38.788Z,7.80
2023-02-03T16:53:07.905Z,7.80
2023-02-03T16:55:35.680Z,7.80
2023-02-03T16:58:03.507Z,7.80
2023-02-03T17:00:31.318Z,7.80
2023-02-03T17:02:59.185Z,8.00
2023-02-03T17:05:28.772Z,8.10
2023-02-03T17:07:56.722Z,8.00
2023-02-03T17:10:24.573Z,8.00
2023-02-03T17:12:53.420Z,7.90
2023-02-03T17:15:21.197Z,8.00
2023-02-03T17:17:48.973Z,8.00
2023-02-03T17:20:17.198Z,8.00
2023-02-03T17:22:46.520Z,7.90
2023-02-03T17:25:14.309Z,7.90
2023-02-03T17:27:42.136Z,8.00
2023-02-03T17:30:11.372Z,8.00
2023-02-03T17:32:39.174Z,7.90
2023-02-03T17:35:07.344Z,7.90
2023-02-03T17:37:35.529Z,7.90
2023-02-03T17:54:04.785Z,7.90
2023-02-03T17:56:35.699Z,7.90
2023-02-03T17:59:05.397Z,7.90
2023-02-03T18:01:33.750Z,7.80
2023-02-03T18:04:03.673Z,7.80
2023-02-03T18:06:33.066Z,7.90
2023-02-03T18:09:01.953Z,7.80
2023-02-03T18:11:31.810Z,7.80
2023-02-03T18:14:02.056Z,7.70
2023-02-03T18:16:33.295Z,7.70
2023-02-03T18:19:02.774Z,7.70
2023-02-03T18:21:32.229Z,7.60
2023-02-03T18:24:01.908Z,7.60
2023-02-03T18:26:32.968Z,7.50
2023-02-03T18:29:02.551Z,7.50
2023-02-03T18:31:30.557Z,7.50
2023-02-03T18:34:02.439Z,7.50
2023-02-03T18:36:30.414Z,7.50
2023-02-03T18:38:58.269Z,7.50
2023-02-03T18:41:27.346Z,7.50
2023-02-03T18:43:55.826Z,7.50
2023-02-03T18:46:27.067Z,7.50
2023-02-03T18:48:56.080Z,7.40
2023-02-03T18:51:25.709Z,7.40
2023-02-03T18:53:58.151Z,7.40
2023-02-03T18:56:27.362Z,7.30
2023-02-03T18:58:55.154Z,7.40
2023-02-03T19:01:26.623Z,7.40
2023-02-03T19:03:55.998Z,7.40
2023-02-03T19:06:25.190Z,7.50
2023-02-03T19:08:53.270Z,7.40
2023-02-03T19:11:21.143Z,7.40
2023-02-03T19:13:49.115Z,7.40
2023-02-03T19:16:18.425Z,7.50
2023-02-03T19:18:47.645Z,7.50
2023-02-03T19:21:15.659Z,7.50
2023-02-03T19:23:43.711Z,7.50
2023-02-03T19:26:12.949Z,7.50
2023-02-03T19:28:42.071Z,7.60
2023-02-03T19:31:13.950Z,7.60
2023-02-03T19:33:42.019Z,7.50
2023-02-03T19:36:12.395Z,7.60
2023-02-03T19:38:40.572Z,7.60
2023-02-03T19:41:09.485Z,7.60
2023-02-03T19:43:37.305Z,7.60
2023-02-03T19:46:05.334Z,7.60
2023-02-03T19:48:33.394Z,7.50
2023-02-03T19:51:01.207Z,7.50
2023-02-03T19:53:30.357Z,7.50
2023-02-03T19:55:58.583Z,7.50
2023-02-03T19:58:26.513Z,7.50
2023-02-03T20:00:54.964Z,7.60
2023-02-03T20:03:22.904Z,7.50
2023-02-03T20:05:52.903Z,7.50
2023-02-03T20:08:20.764Z,7.50
2023-02-03T20:10:50.006Z,7.60
2023-02-03T20:13:17.849Z,7.50
2023-02-03T20:15:47.524Z,7.40
2023-02-03T20:18:16.377Z,7.40
2023-02-03T20:20:44.271Z,7.40
2023-02-03T20:23:12.096Z,7.40
2023-02-03T20:25:39.984Z,7.30
2023-02-03T20:28:09.428Z,7.30
2023-02-03T20:30:38.694Z,7.30
2023-02-03T20:33:06.677Z,7.40
2023-02-03T20:35:34.635Z,7.40
2023-02-03T20:38:02.575Z,7.40
2023-02-03T20:40:31.805Z,7.40
2023-02-03T20:43:05.876Z,7.40
2023-02-03T20:45:35.295Z,7.30
2023-02-03T20:48:03.092Z,7.30
2023-02-03T20:50:41.480Z,7.30
2023-02-03T20:53:14.405Z,7.30
2023-02-03T20:55:42.830Z,7.30
2023-02-03T20:58:18.749Z,7.30
2023-02-03T21:00:49.455Z,7.40
2023-02-03T21:03:36.352Z,7.30
2023-02-03T21:06:12.745Z,7.30
2023-02-03T21:08:40.572Z,7.30
2023-02-03T21:11:11.986Z,7.30
2023-02-03T21:13:41.365Z,7.30
2023-02-03T21:16:18.664Z,7.30
2023-02-03T21:18:50.361Z,7.20
2023-02-03T21:21:24.699Z,7.30
2023-02-03T21:23:53.737Z,7.20
2023-02-03T21:26:23.385Z,7.20
2023-02-03T21:28:54.145Z,7.20
2023-02-03T21:31:26.161Z,7.20
2023-02-03T21:33:55.181Z,7.10
2023-02-03T21:36:24.406Z,7.10
2023-02-03T21:38:54.603Z,7.10
2023-02-03T21:41:24.664Z,7.00
2023-02-03T21:43:54.534Z,7.00
2023-02-03T21:46:27.141Z,7.00
2023-02-03T21:48:55.892Z,7.00
2023-02-03T21:51:26.538Z,6.90
2023-02-03T21:53:56.702Z,6.90
2023-02-03T21:56:26.964Z,6.80
2023-02-03T21:58:58.872Z,6.80
2023-02-03T22:01:38.226Z,6.70
2023-02-03T22:04:06.558Z,6.70
2023-02-03T22:06:43.493Z,6.70
2023-02-03T22:09:12.992Z,6.60
2023-02-03T22:11:40.804Z,6.50
2023-02-03T22:14:08.820Z,6.50
2023-02-03T22:16:38.315Z,6.60
2023-02-03T22:19:06.162Z,6.50
2023-02-03T22:21:34.006Z,6.50
2023-02-03T22:24:02.121Z,6.60
2023-02-03T22:26:29.984Z,6.50
2023-02-03T22:28:57.846Z,6.40
2023-02-03T22:31:25.789Z,6.40
2023-02-03T22:33:55.006Z,6.50
2023-02-03T22:36:23.496Z,6.50
2023-02-03T22:38:51.405Z,6.50
2023-02-03T22:41:20.796Z,6.40
2023-02-03T22:43:49.043Z,6.50
2023-02-03T22:46:16.893Z,6.40
2023-02-03T22:48:44.746Z,6.50
2023-02-03T22:51:13.881Z,6.40
2023-02-03T22:53:41.662Z,6.40
2023-02-03T22:56:09.467Z,6.50
2023-02-03T22:58:37.272Z,6.50
2023-02-03T23:01:05.228Z,6.50
2023-02-03T23:03:33.123Z,6.50
2023-02-03T23:06:01.003Z,6.40
2023-02-03T23:08:30.200Z,6.40
2023-02-03T23:10:58.575Z,6.40
2023-02-03T23:13:26.694Z,6.50
2023-02-03T23:15:54.533Z,6.40
2023-02-03T23:18:22.420Z,6.50
2023-02-03T23:20:50.274Z,6.40
2023-02-03T23:23:18.151Z,6.40
2023-02-03T23:25:47.335Z,6.40
2023-02-03T23:28:15.242Z,6.50
2023-02-03T23:30:43.205Z,6.60
2023-02-03T23:33:11.117Z,6.50
2023-02-03T23:35:46.825Z,6.50
2023-02-03T23:38:15.815Z,6.50
2023-02-03T23:40:44.050Z,6.50
2023-02-03T23:43:13.168Z,6.50
2023-02-03T23:45:41.201Z,6.40
2023-02-03T23:48:09.285Z,6.40
2023-02-03T23:50:37.384Z,6.40
2023-02-03T23:53:05.246Z,6.40
2023-02-03T23:55:33.015Z,6.40
2023-02-03T23:58:00.827Z,6.50
